KSZL

Whiteman AFB Airport

Knob Noster, Missouri, USA
METAR KSZL 100556Z AUTO 00000KT 8SM CLR M08/M09 A3029 RMK AO2 SLP272 T10811091 11036 21082 400021116 58001
Observed Flight Rules
Dec-10 @ 05:56 UTC (an hour ago) Visual Flight Rules
Visibility Clouds
8 miles
  • Clear skies
Temperatures Readings
Current -8°C / 18°F
Dewpoint -9°C / 16°F
Humidity 93%
Altimeter 30.29" Hg
Pressure 1027.2 hPa
Elevation 265
METAR KSZL 100556Z AUTO 00000KT 8SM CLR M08/M09 A3029 RMK AO2 SLP272 T10811091 11036 21082 400021116 58001
Observed Flight Rules
Dec-10 @ 05:56 UTC
(an hour ago)
VFR
Clouds
  • Clear skies
Temperature Dewpoint
-8°C / 18°F -9°C / 16°F
Humidity Altimeter Pressure
93% 30.29" Hg 1027.2 hPa